This is the latest recevied weather packets stored in our database for station/object OK2PYA-5. If no packets are shown the sender has not sent any weather packets the latest 10 day(s).
| Time | Temp. | Humidity | Pressure | Rain* | Wind** | Luminosity | Snow |
|---|---|---|---|---|---|---|---|
| 1777333687 | 3.33° C | 82% | 1019.5 hPa | - | - | - | - |
| 1777331760 | 3.89° C | 81% | 1019.4 hPa | - | - | - | - |
| 1777329834 | 5° C | 76% | 1019.4 hPa | - | - | - | - |
| 1777327501 | 5.56° C | 74% | 1019.4 hPa | - | - | - | - |
| 1777325574 | 6.11° C | 73% | 1019.3 hPa | - | - | - | - |
| 1777323648 | 7.22° C | 70% | 1019.3 hPa | - | - | - | - |
| 1777321721 | 7.78° C | 68% | 1019.2 hPa | - | - | - | - |
| 1777319794 | 8.33° C | 68% | 1019.3 hPa | - | - | - | - |
| 1777317867 | 8.89° C | 67% | 1019.4 hPa | - | - | - | - |
| 1777315940 | 8.89° C | 68% | 1019.2 hPa | - | - | - | - |
| 1777314013 | 9.44° C | 66% | 1018.9 hPa | - | - | - | - |
| 1777312086 | 10.56° C | 60% | 1018.7 hPa | - | - | - | - |
| 1777310159 | 11.67° C | 55% | 1018.6 hPa | - | - | - | - |
| 1777308233 | 12.22° C | 52% | 1018.6 hPa | - | - | - | - |
| 1777305901 | 12.22° C | 48% | 1018.6 hPa | - | - | - | - |
| 1777303974 | 12.78° C | 46% | 1018.8 hPa | - | - | - | - |
| 1777302047 | 12.22° C | 47% | 1019 hPa | - | - | - | - |
| 1777300121 | 12.78° C | 49% | 1019.1 hPa | - | - | - | - |
| 1777298194 | 12.22° C | 51% | 1019.3 hPa | - | - | - | - |
| 1777296267 | 12.22° C | 51% | 1019.6 hPa | - | - | - | - |
| 1777294339 | 12.22° C | 52% | 1019.8 hPa | - | - | - | - |
| 1777292413 | 11.67° C | 54% | 1020 hPa | - | - | - | - |
| 1777290486 | 11.11° C | 58% | 1020.3 hPa | - | - | - | - |
| 1777288559 | 10.56° C | 56% | 1020.6 hPa | - | - | - | - |
| 1777286632 | 10.56° C | 58% | 1020.9 hPa | - | - | - | - |
* Rain since midnight (hover to see other rain measurements)
** Current wind speed in m/s (hover to see current wind gust speed)